Time;durP1;ratioP1;P1;durP2;ratioP2;P2;SDS_P1;SDS_P2;PMS_P1;PMS_P2;Temp;Humidity;BMP_temperature;BMP_pressure;BME280_temperature;BME280_humidity;BME280_pressure;Samples;Min_cycle;Max_cycle;Signal;HPM_P1;HPM_P2
2023/05/16 00:00:44;;;;;;;12.93;2.10;;;11.60;99.90;;;;;;5008240;28;20033;-84
2023/05/16 00:03:10;;;;;;;4.70;1.80;;;11.70;99.90;;;;;;5011854;28;20013;-85
2023/05/16 00:05:37;;;;;;;7.72;1.85;;;11.70;99.90;;;;;;5024798;28;20091;-85
2023/05/16 00:08:06;;;;;;;10.35;2.15;;;11.70;99.90;;;;;;5010340;28;20021;-84
2023/05/16 00:10:33;;;;;;;7.13;1.77;;;11.70;99.90;;;;;;5007368;28;20100;-82
2023/05/16 00:13:00;;;;;;;6.22;1.88;;;11.70;99.90;;;;;;5024017;28;20020;-86
2023/05/16 00:15:28;;;;;;;11.27;1.90;;;11.60;99.90;;;;;;5008932;28;20034;-84
2023/05/16 00:17:57;;;;;;;5.80;2.25;;;11.60;99.90;;;;;;5006212;28;20032;-85
2023/05/16 00:20:23;;;;;;;9.95;1.77;;;11.60;99.90;;;;;;5009708;28;20036;-82
2023/05/16 00:22:49;;;;;;;10.38;2.53;;;11.40;99.90;;;;;;5007826;28;20234;-85
2023/05/16 00:25:17;;;;;;;12.98;2.67;;;11.40;99.90;;;;;;5008133;28;20022;-84
2023/05/16 00:27:45;;;;;;;4.90;1.88;;;11.50;99.90;;;;;;5008813;28;20025;-84
2023/05/16 00:30:14;;;;;;;5.88;2.13;;;11.40;99.90;;;;;;5023085;28;20029;-84
2023/05/16 00:32:39;;;;;;;8.50;1.60;;;11.40;99.90;;;;;;5020366;28;20025;-84
2023/05/16 00:35:06;;;;;;;9.88;2.35;;;11.50;99.90;;;;;;5007092;28;20033;-84
2023/05/16 00:37:31;;;;;;;7.15;2.03;;;11.50;99.90;;;;;;5003960;28;20083;-85
2023/05/16 00:39:57;;;;;;;7.95;1.83;;;11.60;99.90;;;;;;5022704;28;20033;-84
2023/05/16 00:42:22;;;;;;;8.07;2.10;;;11.40;99.90;;;;;;5003289;28;20026;-85
2023/05/16 00:44:49;;;;;;;15.50;3.03;;;11.40;99.90;;;;;;5005958;28;20437;-83
2023/05/16 00:47:15;;;;;;;15.50;2.40;;;11.30;99.90;;;;;;5003681;28;20067;-84
2023/05/16 00:49:43;;;;;;;12.15;2.38;;;11.20;99.90;;;;;;5004268;28;20025;-85
2023/05/16 00:52:09;;;;;;;10.30;2.17;;;11.00;99.90;;;;;;5014994;28;20034;-85
2023/05/16 00:54:38;;;;;;;15.73;2.38;;;11.10;99.90;;;;;;5004902;28;20397;-84
2023/05/16 00:57:07;;;;;;;14.50;2.55;;;11.00;99.90;;;;;;5004795;28;20032;-84
2023/05/16 00:59:33;;;;;;;11.88;2.05;;;11.10;99.90;;;;;;5004081;28;20477;-84
2023/05/16 01:02:01;;;;;;;15.95;2.30;;;11.00;99.90;;;;;;5022170;28;20632;-86
2023/05/16 01:04:27;;;;;;;12.00;2.58;;;10.90;99.90;;;;;;5007379;28;20477;-85
2023/05/16 01:06:55;;;;;;;11.43;2.03;;;11.00;99.90;;;;;;5010897;28;20432;-85
2023/05/16 01:09:20;;;;;;;13.98;2.15;;;11.10;99.90;;;;;;5015401;28;20385;-85
2023/05/16 01:11:57;;;;;;;13.45;2.40;;;11.20;99.90;;;;;;5012157;28;20025;-84
2023/05/16 01:15:07;;;;;;;16.25;2.53;;;11.30;99.90;;;;;;5007278;28;20025;-85
2023/05/16 01:17:51;;;;;;;14.73;2.30;;;11.20;99.90;;;;;;4939334;29;20027;-83
2023/05/16 01:20:36;;;;;;;11.18;2.17;;;11.20;99.90;;;;;;5040835;28;20037;-82
2023/05/16 01:23:17;;;;;;;16.38;2.65;;;11.10;99.90;;;;;;5045336;28;20032;-83
2023/05/16 01:26:16;;;;;;;26.67;3.53;;;11.10;99.90;;;;;;5019799;28;20030;-84
2023/05/16 01:28:44;;;;;;;11.90;2.80;;;11.00;99.90;;;;;;5026894;28;20021;-84
2023/05/16 01:31:10;;;;;;;15.77;2.78;;;11.00;99.90;;;;;;5007679;28;20010;-83
2023/05/16 01:33:38;;;;;;;14.35;2.20;;;10.90;99.90;;;;;;5022803;28;20344;-85
2023/05/16 01:36:30;;;;;;;21.02;2.65;;;10.90;99.90;;;;;;5007164;28;20029;-86
2023/05/16 01:39:09;;;;;;;26.17;3.13;;;10.90;99.90;;;;;;5004399;28;21108;-85
2023/05/16 01:41:59;;;;;;;7.78;2.55;;;10.90;99.90;;;;;;5022463;28;20021;-84
2023/05/16 01:44:31;;;;;;;24.60;3.75;;;10.90;99.90;;;;;;5003973;28;20090;-85
2023/05/16 01:47:00;;;;;;;12.75;2.58;;;10.80;99.90;;;;;;5005772;28;20025;-85
2023/05/16 01:49:30;;;;;;;17.75;2.85;;;10.80;99.90;;;;;;5022025;28;20053;-84
2023/05/16 01:52:03;;;;;;;10.00;2.50;;;10.90;99.90;;;;;;5004699;28;20036;-85
2023/05/16 01:54:34;;;;;;;17.27;3.10;;;10.90;99.90;;;;;;5021328;28;20128;-85
2023/05/16 01:57:02;;;;;;;21.95;3.10;;;10.70;99.90;;;;;;5003724;28;20022;-86
2023/05/16 01:59:29;;;;;;;23.67;2.83;;;10.70;99.90;;;;;;5005171;28;20041;-84
2023/05/16 02:01:56;;;;;;;14.95;2.42;;;10.80;99.90;;;;;;5006783;28;20032;-85
2023/05/16 02:04:23;;;;;;;14.35;2.30;;;10.80;99.90;;;;;;5008541;28;20548;-85
2023/05/16 02:06:49;;;;;;;18.45;2.55;;;10.60;99.90;;;;;;5007916;28;20120;-85
2023/05/16 02:09:17;;;;;;;14.00;2.65;;;10.50;99.90;;;;;;5025825;28;20113;-85
2023/05/16 02:11:45;;;;;;;18.40;2.55;;;10.60;99.90;;;;;;5024933;28;20108;-83
2023/05/16 02:14:11;;;;;;;17.95;2.92;;;10.70;99.90;;;;;;5011096;28;20758;-86
2023/05/16 02:16:39;;;;;;;13.98;2.75;;;10.60;99.90;;;;;;5023938;28;20023;-85
2023/05/16 02:19:05;;;;;;;11.90;2.30;;;10.70;99.90;;;;;;5007200;28;20036;-85
2023/05/16 02:21:31;;;;;;;15.88;2.42;;;10.70;99.90;;;;;;5024334;28;20021;-85
2023/05/16 02:23:56;;;;;;;24.23;2.33;;;10.70;99.90;;;;;;5008666;28;20047;-84
2023/05/16 02:26:22;;;;;;;17.48;2.67;;;10.60;99.90;;;;;;5006411;28;20615;-85
2023/05/16 02:28:48;;;;;;;21.63;2.40;;;10.50;99.90;;;;;;5007745;28;20049;-84
2023/05/16 02:31:28;;;;;;;27.23;2.47;;;10.50;99.90;;;;;;5006764;28;20039;-84
2023/05/16 02:33:54;;;;;;;18.48;2.58;;;10.50;99.90;;;;;;5006445;28;20038;-83
2023/05/16 02:36:20;;;;;;;25.55;2.28;;;10.40;99.90;;;;;;5023420;28;20761;-86
2023/05/16 02:38:45;;;;;;;12.70;2.17;;;10.30;99.90;;;;;;5023624;28;20543;-84
2023/05/16 02:41:11;;;;;;;17.45;2.40;;;10.20;99.90;;;;;;5006846;28;20278;-84
2023/05/16 02:43:37;;;;;;;19.25;2.30;;;10.20;99.90;;;;;;5023483;28;20477;-84
2023/05/16 02:46:26;;;;;;;15.85;2.17;;;10.20;99.90;;;;;;5006990;28;20021;-84
2023/05/16 02:48:56;;;;;;;17.23;2.30;;;10.20;99.90;;;;;;5015801;28;20026;-84
2023/05/16 02:51:24;;;;;;;19.67;2.20;;;10.10;99.90;;;;;;5027442;28;20067;-83
2023/05/16 02:53:50;;;;;;;14.68;2.00;;;10.00;99.90;;;;;;5019315;28;20044;-83
2023/05/16 02:56:15;;;;;;;25.38;2.80;;;10.00;99.90;;;;;;5026926;28;20017;-85
2023/05/16 02:58:42;;;;;;;10.40;1.73;;;9.90;99.90;;;;;;5022782;28;20552;-84
2023/05/16 03:01:08;;;;;;;24.60;2.78;;;9.80;99.90;;;;;;5008853;28;20018;-85
2023/05/16 03:03:41;;;;;;;17.45;2.22;;;9.80;99.90;;;;;;5005815;28;20026;-85
2023/05/16 03:06:07;;;;;;;20.30;2.05;;;9.80;99.90;;;;;;5006586;28;20029;-84
2023/05/16 03:08:34;;;;;;;5.70;1.92;;;9.80;99.90;;;;;;5007697;28;20029;-84
2023/05/16 03:10:59;;;;;;;25.55;3.03;;;9.80;99.90;;;;;;5004490;28;20032;-84
2023/05/16 03:13:25;;;;;;;12.73;1.95;;;9.80;99.90;;;;;;5007925;28;20038;-84
2023/05/16 03:15:52;;;;;;;10.40;1.95;;;9.70;99.90;;;;;;5004629;28;21032;-85
2023/05/16 03:18:17;;;;;;;15.57;2.10;;;9.70;99.90;;;;;;5006854;28;20033;-84
2023/05/16 03:20:43;;;;;;;12.88;1.98;;;9.70;99.90;;;;;;5007984;28;20024;-86
2023/05/16 03:23:09;;;;;;;18.20;1.92;;;9.60;99.90;;;;;;5004512;28;20234;-86
2023/05/16 03:25:37;;;;;;;16.88;2.55;;;9.60;99.90;;;;;;5007703;28;20366;-87
2023/05/16 03:28:06;;;;;;;15.88;1.27;;;9.60;99.90;;;;;;5004770;28;20109;-85
2023/05/16 03:30:33;;;;;;;15.98;2.10;;;9.60;99.90;;;;;;5023579;28;20040;-83
2023/05/16 03:32:58;;;;;;;8.88;1.80;;;9.60;99.90;;;;;;5022028;28;20031;-86
2023/05/16 03:35:24;;;;;;;14.27;1.58;;;9.60;99.90;;;;;;5006805;28;20029;-85
2023/05/16 03:37:50;;;;;;;10.18;1.50;;;9.60;99.90;;;;;;5012736;28;20053;-85
2023/05/16 03:40:16;;;;;;;15.35;1.90;;;9.60;99.90;;;;;;5004017;28;20056;-85
2023/05/16 03:42:42;;;;;;;23.23;2.60;;;9.50;99.90;;;;;;5006421;28;20615;-85
2023/05/16 03:45:08;;;;;;;18.58;2.78;;;9.50;99.90;;;;;;5021879;28;20017;-86
2023/05/16 03:47:34;;;;;;;18.33;2.05;;;9.40;99.90;;;;;;5021879;28;20017;-86
2023/05/16 03:50:00;;;;;;;17.95;2.28;;;9.40;99.90;;;;;;5014566;28;20021;-86
2023/05/16 03:52:28;;;;;;;15.32;2.40;;;9.40;99.90;;;;;;5007461;28;20024;-86
2023/05/16 03:54:56;;;;;;;20.65;2.38;;;9.40;99.90;;;;;;5004803;28;20469;-85
2023/05/16 03:57:22;;;;;;;11.13;2.65;;;9.40;99.90;;;;;;5023038;28;20075;-86
2023/05/16 03:59:48;;;;;;;15.75;2.13;;;9.50;99.90;;;;;;5021511;28;20025;-85
2023/05/16 04:02:13;;;;;;;10.48;1.65;;;9.40;99.90;;;;;;5005019;28;20062;-86
2023/05/16 04:04:42;;;;;;;27.27;2.30;;;9.40;99.90;;;;;;5006367;28;20067;-87
2023/05/16 04:07:07;;;;;;;13.13;2.08;;;9.40;99.90;;;;;;5006093;28;20485;-85
2023/05/16 04:09:33;;;;;;;18.42;2.72;;;9.40;99.90;;;;;;5004600;28;20021;-86
2023/05/16 04:12:02;;;;;;;13.70;2.08;;;9.50;99.90;;;;;;5005928;28;20056;-85
2023/05/16 04:14:27;;;;;;;12.32;1.70;;;9.50;99.90;;;;;;5004712;28;20041;-87
2023/05/16 04:16:53;;;;;;;15.55;2.35;;;9.40;99.90;;;;;;5007079;28;20017;-84
2023/05/16 04:19:20;;;;;;;8.95;1.50;;;9.40;99.90;;;;;;5005988;28;20033;-86
2023/05/16 04:21:46;;;;;;;22.58;2.08;;;9.50;99.90;;;;;;5028673;28;20033;-84
2023/05/16 04:24:14;;;;;;;20.50;2.10;;;9.50;99.90;;;;;;5026978;28;20025;-85
2023/05/16 04:26:40;;;;;;;12.63;1.95;;;9.60;99.90;;;;;;5006043;28;20120;-86
2023/05/16 04:29:06;;;;;;;12.93;1.85;;;9.60;99.90;;;;;;5006822;28;20509;-86
2023/05/16 04:31:31;;;;;;;14.30;1.48;;;9.60;99.90;;;;;;5004126;28;20041;-85
2023/05/16 04:33:57;;;;;;;9.85;1.63;;;9.70;99.90;;;;;;5003451;28;20397;-86
2023/05/16 04:36:22;;;;;;;15.55;1.95;;;9.80;99.90;;;;;;5003145;28;20029;-86
2023/05/16 04:38:48;;;;;;;17.67;1.63;;;9.80;99.90;;;;;;5003382;28;20057;-84
2023/05/16 04:41:16;;;;;;;16.00;2.15;;;9.90;99.90;;;;;;5019621;28;20139;-85
2023/05/16 04:43:43;;;;;;;8.65;1.95;;;9.90;99.90;;;;;;5012449;28;20033;-86
2023/05/16 04:46:11;;;;;;;25.77;2.22;;;9.90;99.90;;;;;;5002707;28;20029;-84
2023/05/16 04:48:36;;;;;;;10.65;2.20;;;10.00;99.90;;;;;;5004239;28;20064;-85
2023/05/16 04:51:02;;;;;;;21.92;2.20;;;10.10;99.90;;;;;;5008585;28;20080;-85
2023/05/16 04:53:28;;;;;;;18.58;2.33;;;10.00;99.90;;;;;;5018657;28;20044;-85
2023/05/16 04:55:56;;;;;;;12.02;2.08;;;10.10;99.90;;;;;;5012006;28;20021;-84
2023/05/16 04:58:23;;;;;;;10.90;1.70;;;10.10;99.90;;;;;;5002372;28;20117;-85
2023/05/16 05:00:54;;;;;;;18.80;1.88;;;10.00;99.90;;;;;;5010739;28;20053;-84
2023/05/16 05:03:20;;;;;;;14.25;1.95;;;10.10;99.90;;;;;;5020492;28;20075;-83
2023/05/16 05:05:46;;;;;;;8.75;1.45;;;10.20;99.90;;;;;;5020027;28;20029;-83
2023/05/16 05:08:12;;;;;;;16.35;2.15;;;10.20;99.90;;;;;;5002651;28;20154;-81
2023/05/16 05:10:40;;;;;;;14.40;2.05;;;10.20;99.90;;;;;;5020104;28;20481;-83
2023/05/16 05:13:06;;;;;;;20.08;2.03;;;10.20;99.90;;;;;;5021123;28;20040;-85
2023/05/16 05:15:31;;;;;;;17.17;1.90;;;10.20;99.90;;;;;;5017497;28;20022;-83
2023/05/16 05:17:57;;;;;;;12.45;1.70;;;10.20;99.90;;;;;;5001927;28;20748;-82
2023/05/16 05:20:23;;;;;;;12.75;2.00;;;10.30;99.90;;;;;;5024909;28;20049;-83
2023/05/16 05:22:49;;;;;;;16.63;2.20;;;10.40;99.90;;;;;;5023934;28;20016;-83
2023/05/16 05:25:17;;;;;;;23.10;2.05;;;10.50;99.90;;;;;;5002857;28;20025;-83
2023/05/16 05:27:44;;;;;;;22.85;2.50;;;10.50;99.90;;;;;;5001834;28;20025;-83
2023/05/16 05:30:10;;;;;;;16.80;2.15;;;10.60;99.90;;;;;;5005428;28;20280;-83
2023/05/16 05:32:36;;;;;;;17.88;2.25;;;10.60;99.90;;;;;;5023009;28;20388;-83
2023/05/16 05:35:04;;;;;;;18.48;2.17;;;10.60;99.90;;;;;;5026650;28;20056;-82
2023/05/16 05:37:30;;;;;;;16.85;2.08;;;10.70;99.90;;;;;;5009696;28;20021;-83
2023/05/16 05:39:59;;;;;;;14.65;2.53;;;10.60;99.90;;;;;;5005496;28;20025;-83
2023/05/16 05:42:32;;;;;;;19.13;2.00;;;10.70;99.90;;;;;;5006260;28;20022;-83
2023/05/16 05:44:58;;;;;;;10.32;1.80;;;10.80;99.90;;;;;;4994571;28;20022;-82
2023/05/16 05:47:24;;;;;;;19.98;1.98;;;10.60;99.90;;;;;;5021684;28;20571;-84
2023/05/16 05:49:50;;;;;;;16.52;1.90;;;10.50;99.90;;;;;;5020866;28;20441;-83
2023/05/16 05:52:15;;;;;;;10.77;1.48;;;10.60;99.90;;;;;;5004168;28;20021;-83
2023/05/16 05:54:41;;;;;;;16.20;2.83;;;10.80;99.90;;;;;;5024171;28;20041;-83
2023/05/16 05:57:07;;;;;;;13.77;2.00;;;10.90;99.90;;;;;;5005678;28;20076;-83
2023/05/16 05:59:35;;;;;;;15.43;2.13;;;11.10;99.90;;;;;;5000894;28;20109;-83
2023/05/16 06:02:01;;;;;;;14.88;2.00;;;11.10;99.90;;;;;;5023618;28;20160;-82
2023/05/16 06:04:27;;;;;;;22.63;2.70;;;11.20;99.90;;;;;;5005470;28;20433;-83
2023/05/16 06:06:52;;;;;;;22.02;2.33;;;11.20;99.90;;;;;;5025368;28;20385;-83
2023/05/16 06:09:18;;;;;;;9.70;2.15;;;11.20;99.90;;;;;;5024277;28;20363;-84
2023/05/16 06:11:44;;;;;;;16.35;1.95;;;11.20;99.90;;;;;;5006858;28;20082;-83
2023/05/16 06:14:10;;;;;;;10.30;2.03;;;11.10;99.90;;;;;;5022638;28;20542;-83
2023/05/16 06:16:38;;;;;;;13.18;2.30;;;11.20;99.90;;;;;;5008110;28;20025;-83
2023/05/16 06:19:04;;;;;;;10.05;1.67;;;11.30;99.90;;;;;;5007213;28;20191;-83
2023/05/16 06:21:29;;;;;;;13.75;2.58;;;11.20;99.90;;;;;;5007138;28;20029;-81
2023/05/16 06:23:57;;;;;;;13.20;2.10;;;11.30;99.90;;;;;;5022097;28;20044;-83
2023/05/16 06:26:25;;;;;;;12.52;2.45;;;11.40;99.90;;;;;;5005688;28;20068;-83
2023/05/16 06:28:51;;;;;;;13.63;2.70;;;11.50;99.90;;;;;;5013195;28;20048;-83
2023/05/16 06:31:19;;;;;;;12.93;1.55;;;11.60;99.90;;;;;;5023757;28;20360;-83
2023/05/16 06:33:45;;;;;;;14.18;1.58;;;11.50;99.90;;;;;;5005428;28;20041;-83
2023/05/16 06:36:10;;;;;;;17.63;2.60;;;11.50;99.90;;;;;;5005348;28;20018;-82
2023/05/16 06:38:41;;;;;;;6.57;1.40;;;11.50;99.90;;;;;;5006506;28;20041;-83
2023/05/16 06:41:06;;;;;;;6.68;1.77;;;11.50;99.90;;;;;;5022235;28;20028;-83
2023/05/16 06:43:32;;;;;;;16.23;2.17;;;11.70;99.90;;;;;;5005752;28;20621;-82
2023/05/16 06:45:58;;;;;;;14.70;1.75;;;11.90;99.90;;;;;;5004047;28;20033;-81
2023/05/16 06:48:23;;;;;;;14.07;1.75;;;12.10;99.90;;;;;;5024416;28;20024;-80
2023/05/16 06:50:50;;;;;;;17.83;1.83;;;12.20;99.90;;;;;;5006425;28;20080;-85
2023/05/16 06:53:19;;;;;;;6.80;1.40;;;12.30;99.90;;;;;;5004754;28;20163;-81
2023/05/16 06:55:47;;;;;;;9.15;1.42;;;12.40;99.90;;;;;;5006718;28;20052;-80
2023/05/16 06:58:13;;;;;;;14.02;1.60;;;12.30;99.90;;;;;;5006326;28;20681;-81
2023/05/16 07:00:39;;;;;;;10.60;1.58;;;12.20;99.90;;;;;;5005929;28;20096;-81
2023/05/16 07:03:05;;;;;;;11.40;2.10;;;12.10;99.90;;;;;;5009026;28;20699;-80
2023/05/16 07:05:31;;;;;;;12.25;1.50;;;12.30;99.90;;;;;;5005000;28;20028;-80
2023/05/16 07:07:57;;;;;;;13.65;1.75;;;12.50;99.90;;;;;;5004923;28;20052;-81
2023/05/16 07:10:22;;;;;;;9.35;1.42;;;12.70;99.90;;;;;;5022835;28;20033;-82
2023/05/16 07:12:48;;;;;;;16.00;1.95;;;12.70;99.90;;;;;;5024823;28;20516;-83
2023/05/16 07:15:14;;;;;;;12.48;2.05;;;12.60;99.90;;;;;;5026082;28;20034;-82
2023/05/16 07:17:39;;;;;;;13.35;1.80;;;12.50;99.90;;;;;;5024561;28;20028;-83
2023/05/16 07:20:07;;;;;;;16.67;2.00;;;12.20;99.90;;;;;;5027004;28;20030;-84
2023/05/16 07:22:35;;;;;;;10.98;2.70;;;12.30;99.90;;;;;;5005812;28;20035;-83
2023/05/16 07:25:01;;;;;;;19.55;4.75;;;12.70;99.90;;;;;;5024319;28;20029;-84
2023/05/16 07:27:30;;;;;;;22.50;3.88;;;12.80;99.90;;;;;;5006786;28;20021;-81
2023/05/16 07:29:56;;;;;;;11.75;2.22;;;13.00;99.90;;;;;;5008055;28;20022;-83
2023/05/16 07:32:22;;;;;;;19.85;2.17;;;13.30;99.90;;;;;;5012328;28;20532;-83
2023/05/16 07:34:47;;;;;;;6.63;1.05;;;13.30;99.90;;;;;;5010583;28;20346;-82
2023/05/16 07:37:14;;;;;;;13.57;1.55;;;13.50;99.90;;;;;;5027399;28;20342;-84
2023/05/16 07:39:41;;;;;;;5.47;1.17;;;13.80;99.90;;;;;;5007721;28;20033;-84
2023/05/16 07:42:07;;;;;;;7.88;1.33;;;13.80;99.90;;;;;;5007576;28;20029;-83
2023/05/16 07:44:33;;;;;;;12.73;1.92;;;14.10;99.90;;;;;;5009146;28;20048;-84
2023/05/16 07:46:59;;;;;;;12.25;1.95;;;14.40;99.90;;;;;;5007435;28;20486;-83
2023/05/16 07:49:25;;;;;;;19.13;1.92;;;14.80;99.90;;;;;;5019460;28;20469;-84
2023/05/16 07:51:50;;;;;;;10.07;1.45;;;15.00;99.90;;;;;;5041853;28;20021;-83
2023/05/16 07:54:19;;;;;;;5.20;1.25;;;15.20;99.90;;;;;;5026152;28;20034;-83
2023/05/16 07:56:44;;;;;;;6.88;1.30;;;15.30;99.90;;;;;;5025184;28;20029;-84
2023/05/16 07:59:10;;;;;;;5.15;1.35;;;15.00;99.90;;;;;;5024554;28;20028;-84
2023/05/16 08:01:36;;;;;;;13.00;1.58;;;14.70;99.90;;;;;;5025167;28;20026;-84
2023/05/16 08:04:02;;;;;;;8.32;1.60;;;14.40;99.90;;;;;;5022976;28;20551;-83
2023/05/16 08:06:28;;;;;;;10.07;1.38;;;14.40;99.90;;;;;;5006144;28;20033;-84
2023/05/16 08:08:56;;;;;;;5.82;1.00;;;14.30;99.90;;;;;;5027080;28;20398;-84
2023/05/16 08:11:22;;;;;;;13.75;2.13;;;14.60;99.90;;;;;;5008153;28;20101;-84
2023/05/16 08:13:48;;;;;;;7.20;1.23;;;14.90;99.90;;;;;;5009516;28;20030;-84
2023/05/16 08:16:14;;;;;;;8.32;1.73;;;15.00;99.90;;;;;;5026420;28;20016;-84
2023/05/16 08:18:41;;;;;;;5.95;1.00;;;15.10;99.90;;;;;;5027458;28;20022;-84
2023/05/16 08:21:07;;;;;;;3.70;1.15;;;15.40;99.90;;;;;;5039578;28;20033;-84
2023/05/16 08:23:33;;;;;;;3.90;1.00;;;15.40;99.90;;;;;;5047916;28;20025;-83
2023/05/16 08:26:00;;;;;;;6.68;1.08;;;15.50;99.90;;;;;;5030969;28;20029;-83
2023/05/16 08:28:28;;;;;;;6.85;1.50;;;16.00;99.90;;;;;;5009072;28;20029;-82
2023/05/16 08:30:53;;;;;;;6.18;1.20;;;16.10;99.90;;;;;;5023508;28;20548;-83
2023/05/16 08:33:19;;;;;;;8.57;1.13;;;16.70;99.90;;;;;;5023684;28;20033;-83
2023/05/16 08:35:48;;;;;;;6.43;1.42;;;17.10;99.90;;;;;;5010008;28;20454;-83
2023/05/16 08:38:13;;;;;;;8.95;1.40;;;17.30;99.90;;;;;;5006635;28;20362;-83
2023/05/16 08:40:39;;;;;;;10.77;1.63;;;17.60;99.90;;;;;;5026653;28;20469;-84
2023/05/16 08:43:06;;;;;;;5.45;1.20;;;17.00;99.90;;;;;;5025316;28;20026;-83
2023/05/16 08:45:32;;;;;;;10.00;1.20;;;16.70;99.90;;;;;;5025317;28;20083;-83
2023/05/16 08:48:00;;;;;;;10.63;1.67;;;16.50;99.90;;;;;;5006932;28;20102;-83
2023/05/16 08:50:30;;;;;;;11.45;1.55;;;15.80;99.90;;;;;;5004965;28;20036;-84
2023/05/16 08:52:56;;;;;;;4.13;1.13;;;15.60;99.90;;;;;;5026050;28;20103;-83
2023/05/16 08:55:23;;;;;;;14.00;1.50;;;15.20;99.90;;;;;;5007091;28;20033;-84
2023/05/16 08:57:52;;;;;;;12.85;1.73;;;15.10;99.90;;;;;;5005539;28;20536;-83
2023/05/16 09:00:19;;;;;;;12.40;1.52;;;14.90;99.90;;;;;;5022521;28;20026;-83
2023/05/16 09:02:45;;;;;;;9.57;1.40;;;14.80;99.90;;;;;;5024686;28;20036;-84
2023/05/16 09:05:12;;;;;;;8.90;1.25;;;14.50;99.90;;;;;;5007292;28;20022;-84
2023/05/16 09:07:39;;;;;;;21.23;3.92;;;14.60;99.90;;;;;;5024591;28;20381;-83
2023/05/16 09:10:08;;;;;;;11.35;1.80;;;14.40;99.90;;;;;;5015801;28;20030;-85
2023/05/16 09:12:34;;;;;;;10.57;2.22;;;14.30;99.90;;;;;;4998281;28;20492;-84
2023/05/16 09:15:03;;;;;;;6.53;1.30;;;14.30;99.90;;;;;;5008093;28;20030;-84
2023/05/16 09:17:49;;;;;;;7.25;1.10;;;14.70;99.90;;;;;;5005958;28;20128;-84
2023/05/16 09:20:16;;;;;;;13.80;1.63;;;15.00;99.90;;;;;;5000801;28;20062;-83
2023/05/16 09:23:02;;;;;;;13.65;1.30;;;15.50;99.90;;;;;;5023358;28;20052;-83
2023/05/16 09:25:28;;;;;;;4.70;1.23;;;15.90;99.90;;;;;;5027699;28;20045;-84
2023/05/16 09:27:58;;;;;;;4.63;1.08;;;15.60;99.90;;;;;;5027633;28;20014;-84
2023/05/16 09:30:30;;;;;;;3.25;0.80;;;15.40;99.90;;;;;;5013919;28;20131;-84
2023/05/16 09:32:58;;;;;;;2.63;0.93;;;15.60;99.90;;;;;;5026123;28;20018;-84
2023/05/16 09:35:23;;;;;;;2.15;0.60;;;15.90;99.90;;;;;;5027409;28;20033;-84
2023/05/16 09:37:52;;;;;;;3.90;0.50;;;16.10;99.90;;;;;;5007425;28;20112;-84
2023/05/16 09:40:21;;;;;;;3.10;0.70;;;16.50;99.90;;;;;;5021871;28;20025;-84
2023/05/16 09:42:51;;;;;;;3.67;0.73;;;16.90;99.90;;;;;;5026181;28;20104;-83
2023/05/16 09:45:16;;;;;;;1.55;0.40;;;16.90;99.90;;;;;;5006746;28;20025;-83
2023/05/16 09:47:45;;;;;;;2.60;0.47;;;16.80;99.90;;;;;;5025312;28;20040;-86
2023/05/16 09:50:14;;;;;;;2.17;0.70;;;17.20;99.90;;;;;;5006637;28;20124;-84
2023/05/16 09:52:43;;;;;;;4.90;0.93;;;17.80;99.90;;;;;;5000690;28;20026;-85
2023/05/16 09:55:09;;;;;;;2.70;0.75;;;18.20;99.90;;;;;;5025714;28;20029;-83
2023/05/16 09:57:39;;;;;;;4.18;0.93;;;18.70;99.90;;;;;;5024759;28;20060;-82
2023/05/16 10:00:09;;;;;;;4.05;0.80;;;18.70;99.90;;;;;;5024521;28;20168;-84
2023/05/16 10:02:36;;;;;;;2.78;0.73;;;19.00;99.90;;;;;;5009504;28;20086;-85
2023/05/16 10:05:01;;;;;;;4.35;1.10;;;19.30;99.90;;;;;;5025392;28;20013;-84
2023/05/16 10:07:30;;;;;;;2.60;0.80;;;19.80;99.90;;;;;;5029267;28;20024;-83
2023/05/16 10:10:03;;;;;;;2.25;0.80;;;20.00;99.90;;;;;;5036388;28;20029;-84
2023/05/16 10:12:32;;;;;;;2.95;0.85;;;20.30;99.90;;;;;;5036634;28;20056;-85
2023/05/16 10:50:27;;;;;;;4.78;0.70;;;16.00;99.90;;;;;;5012021;28;20051;-80
2023/05/16 10:52:52;;;;;;;3.28;0.88;;;17.40;99.90;;;;;;4998677;28;20070;-80
2023/05/16 10:55:18;;;;;;;4.80;0.73;;;18.50;99.90;;;;;;4995933;28;20034;-80
2023/05/16 10:57:44;;;;;;;2.60;0.85;;;18.90;99.90;;;;;;5007181;28;20413;-81
2023/05/16 11:00:21;;;;;;;2.38;0.70;;;19.50;99.90;;;;;;5007030;28;20042;-80
2023/05/16 11:02:46;;;;;;;5.70;0.80;;;19.50;99.90;;;;;;5006414;28;20029;-81
2023/05/16 11:05:17;;;;;;;2.05;0.70;;;19.90;99.90;;;;;;4992756;28;20026;-80
2023/05/16 11:07:43;;;;;;;6.20;0.95;;;19.80;99.90;;;;;;4995916;28;20026;-80
2023/05/16 11:10:15;;;;;;;2.28;0.70;;;19.60;99.90;;;;;;4997526;28;20415;-79
2023/05/16 11:12:47;;;;;;;1.92;0.65;;;19.70;99.90;;;;;;4995789;28;20049;-80
2023/05/16 11:15:27;;;;;;;1.35;0.80;;;20.00;95.00;;;;;;5011424;28;20045;-80
2023/05/16 11:18:16;;;;;;;2.45;0.90;;;20.80;91.40;;;;;;4992362;28;20033;-79
2023/05/16 11:20:42;;;;;;;2.40;0.70;;;21.10;85.30;;;;;;4991721;28;20064;-80
2023/05/16 11:23:28;;;;;;;5.47;1.38;;;20.50;82.80;;;;;;5008237;28;20029;-81
2023/05/16 11:25:59;;;;;;;4.88;1.05;;;20.60;87.90;;;;;;4993015;28;20128;-80
2023/05/16 11:28:26;;;;;;;1.73;0.80;;;20.80;83.60;;;;;;5015050;28;20080;-81
2023/05/16 11:30:55;;;;;;;5.72;0.82;;;20.90;86.00;;;;;;4994086;28;20018;-80
2023/05/16 11:33:22;;;;;;;3.92;0.90;;;20.80;82.90;;;;;;5006538;28;20076;-80
2023/05/16 11:36:05;;;;;;;3.38;1.00;;;20.40;84.00;;;;;;5005983;28;20018;-81
2023/05/16 11:38:32;;;;;;;5.50;0.93;;;20.10;84.90;;;;;;4991715;28;20160;-80
2023/05/16 11:41:03;;;;;;;3.55;0.80;;;20.70;83.70;;;;;;5006856;28;20038;-80
2023/05/16 11:43:28;;;;;;;2.75;1.05;;;20.70;82.00;;;;;;5004398;28;20034;-80
2023/05/16 11:45:55;;;;;;;2.22;0.93;;;20.80;78.20;;;;;;4997265;28;20041;-79
2023/05/16 11:48:24;;;;;;;2.30;0.88;;;21.20;78.60;;;;;;5002899;28;20030;-81
2023/05/16 11:50:52;;;;;;;6.05;0.95;;;21.40;81.00;;;;;;5012112;28;20391;-80
2023/05/16 11:53:18;;;;;;;3.90;1.08;;;21.60;75.60;;;;;;4997497;28;20121;-80
2023/05/16 11:55:50;;;;;;;2.95;1.15;;;21.90;72.20;;;;;;4986390;28;20026;-81
2023/05/16 11:58:17;;;;;;;3.65;0.73;;;21.70;65.80;;;;;;5003286;28;20523;-81
2023/05/16 12:00:50;;;;;;;3.00;1.00;;;22.00;69.10;;;;;;5008491;28;20057;-81
2023/05/16 12:03:19;;;;;;;2.92;0.80;;;22.00;64.90;;;;;;4992778;28;20060;-86
2023/05/16 12:05:52;;;;;;;3.75;0.90;;;22.10;65.50;;;;;;5011801;28;20018;-86
2023/05/16 12:08:20;;;;;;;5.72;0.70;;;22.10;64.10;;;;;;5008452;28;20104;-85
2023/05/16 12:10:48;;;;;;;3.72;1.02;;;22.30;66.90;;;;;;5005274;28;20160;-85
2023/05/16 12:13:14;;;;;;;4.38;1.05;;;21.80;66.40;;;;;;5010271;28;20040;-85
2023/05/16 12:15:41;;;;;;;3.65;0.90;;;21.70;68.10;;;;;;5011127;28;20040;-84
2023/05/16 12:18:07;;;;;;;3.50;0.88;;;21.30;66.60;;;;;;5007016;28;20049;-80
2023/05/16 12:20:33;;;;;;;5.63;0.90;;;20.80;68.70;;;;;;5011621;28;20029;-80
2023/05/16 12:22:59;;;;;;;3.38;0.80;;;20.50;69.40;;;;;;5004231;28;20025;-81
2023/05/16 12:25:26;;;;;;;2.40;1.10;;;20.40;69.20;;;;;;4999887;28;20058;-81
2023/05/16 12:27:53;;;;;;;5.18;0.90;;;21.30;70.90;;;;;;5004274;28;20021;-81
2023/05/16 12:30:23;;;;;;;4.63;1.05;;;21.90;66.80;;;;;;4992092;28;20037;-83
2023/05/16 12:33:01;;;;;;;2.72;0.75;;;22.30;65.60;;;;;;5005129;28;20029;-81
2023/05/16 12:35:32;;;;;;;1.80;0.90;;;22.30;62.80;;;;;;5006743;28;20037;-80
2023/05/16 12:38:01;;;;;;;5.07;1.13;;;22.60;64.10;;;;;;4994318;28;20409;-81
2023/05/16 12:40:30;;;;;;;5.00;1.05;;;22.50;61.10;;;;;;4993241;28;20175;-84
2023/05/16 12:42:56;;;;;;;0.95;0.65;;;22.40;61.10;;;;;;5002685;28;20049;-84
2023/05/16 12:45:22;;;;;;;7.97;1.55;;;21.90;62.20;;;;;;5018083;28;20028;-84
2023/05/16 12:47:48;;;;;;;3.95;1.13;;;21.30;62.60;;;;;;5010559;28;20075;-85
2023/05/16 12:50:16;;;;;;;4.47;1.00;;;20.70;65.20;;;;;;5000788;28;20037;-84
2023/05/16 12:52:58;;;;;;;1.80;1.00;;;19.80;65.50;;;;;;5002889;28;20416;-84
2023/05/16 12:55:25;;;;;;;4.38;1.00;;;19.10;69.20;;;;;;5015088;28;20474;-84
2023/05/16 12:57:50;;;;;;;4.28;1.00;;;18.80;70.00;;;;;;4996970;28;20087;-84
2023/05/16 13:00:19;;;;;;;3.53;1.10;;;18.80;72.20;;;;;;5003748;28;20121;-81
2023/05/16 13:02:47;;;;;;;5.85;1.52;;;19.30;73.70;;;;;;4995281;28;20342;-81
2023/05/16 13:05:13;;;;;;;7.10;1.20;;;19.60;72.40;;;;;;5003087;28;20087;-80
2023/05/16 13:07:42;;;;;;;4.50;1.20;;;19.40;71.80;;;;;;5012263;28;20034;-80
2023/05/16 13:10:12;;;;;;;4.50;0.90;;;19.10;69.50;;;;;;5003953;28;20029;-81
2023/05/16 13:12:41;;;;;;;3.92;1.15;;;18.90;70.70;;;;;;5006340;28;20037;-81
2023/05/16 13:15:08;;;;;;;4.70;1.40;;;19.50;71.20;;;;;;4994482;28;20101;-80
2023/05/16 13:17:34;;;;;;;4.03;1.23;;;20.60;69.50;;;;;;5006409;28;20030;-80
2023/05/16 13:20:01;;;;;;;5.75;1.52;;;20.90;67.30;;;;;;4998465;28;20025;-81
2023/05/16 13:22:27;;;;;;;6.25;1.63;;;21.10;69.10;;;;;;5009641;28;20065;-80